aviador You're here:

SARF Decoded Metar

FORMOSA in ARGENTINA
Report Time2018-07-20 06:00:00
UTC Time2018-07-20 06:21:47
Flight Rules ifr IFR
Wind250° at 13 kt
W.Decomp.*RWY 22: 9.7 kt HW 8.7 kt RCW
W.Rank250° ranks 13
Current wind is above 250° avg. (5.3)
Visibility9999 m
Phenomena:N/A
Clouds:Overcast 006 Hf
Expected CloudBase > 800 ft AGL from Temp-Dew spread
Ceiling600 ft
Temp13°C (ISA -2)
Dew Point11°C (88% RH)
AAT8.7°C
QNH1013 hPa
Density Alt184 ft
Elevation197 ft
Report Wrong Elevation
Raw Report
METAR SARF 200600Z 25013KT 9999 OVC006 13/11 Q1013=

Extra information for SARF:More info

Metar Taf Metar & Taf Last 4 Metars F.Rules Stats Wind Profile Meteogram Temp Stats Airport Information Weather charts Add Link Nearby VenuesMetar ALERT Operation Metar Decoded Social comments